sensor_id;sensor_type;location;lat;lon;timestamp;temperature;humidity
20035;DHT22;10178;48.034;9.800;2022-10-31T00:02:07;12.30;99.90
20035;DHT22;10178;48.034;9.800;2022-10-31T00:04:32;12.60;99.90
20035;DHT22;10178;48.034;9.800;2022-10-31T00:06:58;12.80;99.90
20035;DHT22;10178;48.034;9.800;2022-10-31T00:09:23;12.90;99.90
20035;DHT22;10178;48.034;9.800;2022-10-31T00:11:49;13.00;99.90
20035;DHT22;10178;48.034;9.800;2022-10-31T00:14:14;12.20;99.90
20035;DHT22;10178;48.034;9.800;2022-10-31T00:16:40;11.30;99.90
20035;DHT22;10178;48.034;9.800;2022-10-31T00:19:07;11.60;99.90
20035;DHT22;10178;48.034;9.800;2022-10-31T00:21:34;12.00;99.90
20035;DHT22;10178;48.034;9.800;2022-10-31T00:24:00;12.50;99.90
20035;DHT22;10178;48.034;9.800;2022-10-31T00:26:28;12.80;99.90
20035;DHT22;10178;48.034;9.800;2022-10-31T00:28:54;12.90;99.90
20035;DHT22;10178;48.034;9.800;2022-10-31T00:31:20;13.00;99.90
20035;DHT22;10178;48.034;9.800;2022-10-31T00:33:46;13.10;99.90
20035;DHT22;10178;48.034;9.800;2022-10-31T00:36:14;13.20;99.90
20035;DHT22;10178;48.034;9.800;2022-10-31T00:38:43;13.20;99.90
20035;DHT22;10178;48.034;9.800;2022-10-31T00:41:10;13.20;99.90
20035;DHT22;10178;48.034;9.800;2022-10-31T00:43:36;13.20;99.90
20035;DHT22;10178;48.034;9.800;2022-10-31T00:46:02;13.20;99.90
20035;DHT22;10178;48.034;9.800;2022-10-31T00:48:28;13.10;99.90
20035;DHT22;10178;48.034;9.800;2022-10-31T00:50:53;13.20;99.90
20035;DHT22;10178;48.034;9.800;2022-10-31T00:53:19;13.20;99.90
20035;DHT22;10178;48.034;9.800;2022-10-31T00:55:45;13.20;99.90
20035;DHT22;10178;48.034;9.800;2022-10-31T00:58:10;13.20;99.90
20035;DHT22;10178;48.034;9.800;2022-10-31T01:00:36;13.20;99.90
20035;DHT22;10178;48.034;9.800;2022-10-31T01:03:02;13.20;99.90
20035;DHT22;10178;48.034;9.800;2022-10-31T01:05:27;13.10;99.90
20035;DHT22;10178;48.034;9.800;2022-10-31T01:07:53;13.10;99.90
20035;DHT22;10178;48.034;9.800;2022-10-31T01:10:18;13.10;99.90
20035;DHT22;10178;48.034;9.800;2022-10-31T01:12:46;13.10;99.90
20035;DHT22;10178;48.034;9.800;2022-10-31T01:15:14;13.10;99.90
20035;DHT22;10178;48.034;9.800;2022-10-31T01:17:40;13.00;99.90
20035;DHT22;10178;48.034;9.800;2022-10-31T01:20:07;13.10;99.90
20035;DHT22;10178;48.034;9.800;2022-10-31T01:22:33;13.10;99.90
20035;DHT22;10178;48.034;9.800;2022-10-31T01:24:59;13.10;99.90
20035;DHT22;10178;48.034;9.800;2022-10-31T01:27:25;13.00;99.90
20035;DHT22;10178;48.034;9.800;2022-10-31T01:29:51;13.00;99.90
20035;DHT22;10178;48.034;9.800;2022-10-31T01:32:16;12.00;99.90
20035;DHT22;10178;48.034;9.800;2022-10-31T01:34:42;11.50;99.90
20035;DHT22;10178;48.034;9.800;2022-10-31T01:37:07;10.90;99.90
20035;DHT22;10178;48.034;9.800;2022-10-31T01:39:33;10.50;99.90
20035;DHT22;10178;48.034;9.800;2022-10-31T01:41:59;10.50;99.90
20035;DHT22;10178;48.034;9.800;2022-10-31T01:51:53;12.40;99.90
20035;DHT22;10178;48.034;9.800;2022-10-31T01:54:23;12.60;99.90
20035;DHT22;10178;48.034;9.800;2022-10-31T01:56:52;12.60;99.90
20035;DHT22;10178;48.034;9.800;2022-10-31T01:59:21;12.70;99.90
20035;DHT22;10178;48.034;9.800;2022-10-31T02:01:49;12.70;99.90
20035;DHT22;10178;48.034;9.800;2022-10-31T02:04:16;12.70;99.90
20035;DHT22;10178;48.034;9.800;2022-10-31T02:06:56;12.70;99.90
20035;DHT22;10178;48.034;9.800;2022-10-31T02:09:23;12.70;99.90
20035;DHT22;10178;48.034;9.800;2022-10-31T02:11:56;12.70;99.90
20035;DHT22;10178;48.034;9.800;2022-10-31T02:14:24;12.70;99.90
20035;DHT22;10178;48.034;9.800;2022-10-31T02:16:50;12.70;99.90
20035;DHT22;10178;48.034;9.800;2022-10-31T02:21:58;12.70;99.90
20035;DHT22;10178;48.034;9.800;2022-10-31T02:27:50;12.70;99.90
20035;DHT22;10178;48.034;9.800;2022-10-31T02:30:18;12.70;99.90
20035;DHT22;10178;48.034;9.800;2022-10-31T02:40:33;10.80;99.90
20035;DHT22;10178;48.034;9.800;2022-10-31T02:45:32;11.10;99.90
20035;DHT22;10178;48.034;9.800;2022-10-31T02:48:04;11.60;99.90
20035;DHT22;10178;48.034;9.800;2022-10-31T02:50:34;11.60;99.90
20035;DHT22;10178;48.034;9.800;2022-10-31T02:53:03;12.00;99.90
20035;DHT22;10178;48.034;9.800;2022-10-31T02:58:08;12.30;99.90
20035;DHT22;10178;48.034;9.800;2022-10-31T03:05:52;12.50;99.90
20035;DHT22;10178;48.034;9.800;2022-10-31T03:08:35;12.50;99.90
20035;DHT22;10178;48.034;9.800;2022-10-31T03:11:06;12.50;99.90
20035;DHT22;10178;48.034;9.800;2022-10-31T03:16:15;12.50;99.90
20035;DHT22;10178;48.034;9.800;2022-10-31T03:18:55;12.40;99.90
20035;DHT22;10178;48.034;9.800;2022-10-31T03:24:01;12.40;99.90
20035;DHT22;10178;48.034;9.800;2022-10-31T03:26:27;12.40;99.90
20035;DHT22;10178;48.034;9.800;2022-10-31T03:29:05;12.40;99.90
20035;DHT22;10178;48.034;9.800;2022-10-31T03:32:04;12.40;99.90
20035;DHT22;10178;48.034;9.800;2022-10-31T03:34:32;12.40;99.90
20035;DHT22;10178;48.034;9.800;2022-10-31T03:37:02;12.30;99.90
20035;DHT22;10178;48.034;9.800;2022-10-31T03:39:29;12.30;99.90
20035;DHT22;10178;48.034;9.800;2022-10-31T03:42:18;12.30;99.90
20035;DHT22;10178;48.034;9.800;2022-10-31T03:44:49;12.30;99.90
20035;DHT22;10178;48.034;9.800;2022-10-31T03:47:17;12.30;99.90
20035;DHT22;10178;48.034;9.800;2022-10-31T03:49:42;12.30;99.90
20035;DHT22;10178;48.034;9.800;2022-10-31T03:55:19;10.40;99.90
20035;DHT22;10178;48.034;9.800;2022-10-31T04:01:00;10.50;99.90
20035;DHT22;10178;48.034;9.800;2022-10-31T04:03:31;9.90;99.90
20035;DHT22;10178;48.034;9.800;2022-10-31T04:06:01;9.60;99.90
20035;DHT22;10178;48.034;9.800;2022-10-31T04:08:30;9.30;99.90
20035;DHT22;10178;48.034;9.800;2022-10-31T04:10:59;9.20;99.90
20035;DHT22;10178;48.034;9.800;2022-10-31T04:13:28;9.10;99.90
20035;DHT22;10178;48.034;9.800;2022-10-31T04:15:55;9.80;99.90
20035;DHT22;10178;48.034;9.800;2022-10-31T04:18:24;10.50;99.90
20035;DHT22;10178;48.034;9.800;2022-10-31T04:21:00;11.00;99.90
20035;DHT22;10178;48.034;9.800;2022-10-31T04:23:27;11.40;99.90
20035;DHT22;10178;48.034;9.800;2022-10-31T04:25:52;11.60;99.90
20035;DHT22;10178;48.034;9.800;2022-10-31T04:28:18;11.70;99.90
20035;DHT22;10178;48.034;9.800;2022-10-31T04:30:44;11.90;99.90
20035;DHT22;10178;48.034;9.800;2022-10-31T04:33:10;11.90;99.90
20035;DHT22;10178;48.034;9.800;2022-10-31T04:35:35;12.00;99.90
20035;DHT22;10178;48.034;9.800;2022-10-31T04:38:01;12.00;99.90
20035;DHT22;10178;48.034;9.800;2022-10-31T04:40:27;12.00;99.90
20035;DHT22;10178;48.034;9.800;2022-10-31T04:42:52;12.10;99.90
20035;DHT22;10178;48.034;9.800;2022-10-31T04:45:18;12.10;99.90
20035;DHT22;10178;48.034;9.800;2022-10-31T04:47:43;12.10;99.90
20035;DHT22;10178;48.034;9.800;2022-10-31T04:50:09;12.10;99.90
20035;DHT22;10178;48.034;9.800;2022-10-31T04:52:42;12.10;99.90
20035;DHT22;10178;48.034;9.800;2022-10-31T04:55:09;12.00;99.90
20035;DHT22;10178;48.034;9.800;2022-10-31T04:57:46;12.00;99.90
20035;DHT22;10178;48.034;9.800;2022-10-31T05:00:14;12.00;99.90
20035;DHT22;10178;48.034;9.800;2022-10-31T05:02:47;12.00;99.90
20035;DHT22;10178;48.034;9.800;2022-10-31T05:05:14;12.00;99.90
20035;DHT22;10178;48.034;9.800;2022-10-31T05:07:45;12.00;99.90
20035;DHT22;10178;48.034;9.800;2022-10-31T05:10:13;12.00;99.90
20035;DHT22;10178;48.034;9.800;2022-10-31T05:12:49;11.90;99.90
20035;DHT22;10178;48.034;9.800;2022-10-31T05:15:15;11.90;99.90
20035;DHT22;10178;48.034;9.800;2022-10-31T05:17:42;11.90;99.90
20035;DHT22;10178;48.034;9.800;2022-10-31T05:20:08;11.90;99.90
20035;DHT22;10178;48.034;9.800;2022-10-31T05:22:33;11.90;99.90
20035;DHT22;10178;48.034;9.800;2022-10-31T05:24:59;11.90;99.90
20035;DHT22;10178;48.034;9.800;2022-10-31T05:27:24;11.90;99.90
20035;DHT22;10178;48.034;9.800;2022-10-31T05:29:50;11.90;99.90
20035;DHT22;10178;48.034;9.800;2022-10-31T05:32:16;11.90;99.90
20035;DHT22;10178;48.034;9.800;2022-10-31T05:34:41;11.90;99.90
20035;DHT22;10178;48.034;9.800;2022-10-31T05:37:07;11.90;99.90
20035;DHT22;10178;48.034;9.800;2022-10-31T05:39:32;11.90;99.90
20035;DHT22;10178;48.034;9.800;2022-10-31T05:41:58;11.80;99.90
20035;DHT22;10178;48.034;9.800;2022-10-31T05:44:24;11.90;99.90
20035;DHT22;10178;48.034;9.800;2022-10-31T05:46:49;11.80;99.90
20035;DHT22;10178;48.034;9.800;2022-10-31T05:49:15;11.80;99.90
20035;DHT22;10178;48.034;9.800;2022-10-31T05:51:42;11.80;99.90
20035;DHT22;10178;48.034;9.800;2022-10-31T05:54:08;11.80;99.90
20035;DHT22;10178;48.034;9.800;2022-10-31T05:56:33;11.80;99.90
20035;DHT22;10178;48.034;9.800;2022-10-31T05:58:59;11.80;99.90
20035;DHT22;10178;48.034;9.800;2022-10-31T06:01:25;11.80;99.90
20035;DHT22;10178;48.034;9.800;2022-10-31T06:03:50;11.80;99.90
20035;DHT22;10178;48.034;9.800;2022-10-31T06:06:16;11.70;99.90
20035;DHT22;10178;48.034;9.800;2022-10-31T06:08:41;11.70;99.90
20035;DHT22;10178;48.034;9.800;2022-10-31T06:11:07;11.70;99.90
20035;DHT22;10178;48.034;9.800;2022-10-31T06:13:33;11.70;99.90
20035;DHT22;10178;48.034;9.800;2022-10-31T06:15:58;11.70;99.90
20035;DHT22;10178;48.034;9.800;2022-10-31T06:18:24;11.70;99.90
20035;DHT22;10178;48.034;9.800;2022-10-31T06:20:50;11.70;99.90
20035;DHT22;10178;48.034;9.800;2022-10-31T06:23:15;11.70;99.90
20035;DHT22;10178;48.034;9.800;2022-10-31T06:25:41;11.60;99.90
20035;DHT22;10178;48.034;9.800;2022-10-31T06:28:07;11.70;99.90
20035;DHT22;10178;48.034;9.800;2022-10-31T06:30:32;11.60;99.90
20035;DHT22;10178;48.034;9.800;2022-10-31T06:33:03;11.60;99.90
20035;DHT22;10178;48.034;9.800;2022-10-31T06:35:29;11.60;99.90
20035;DHT22;10178;48.034;9.800;2022-10-31T06:37:54;11.70;99.90
20035;DHT22;10178;48.034;9.800;2022-10-31T06:40:21;11.60;99.90
20035;DHT22;10178;48.034;9.800;2022-10-31T06:42:46;11.70;99.90
20035;DHT22;10178;48.034;9.800;2022-10-31T06:45:12;11.60;99.90
20035;DHT22;10178;48.034;9.800;2022-10-31T06:47:38;11.60;99.90
20035;DHT22;10178;48.034;9.800;2022-10-31T06:50:04;11.60;99.90
20035;DHT22;10178;48.034;9.800;2022-10-31T06:52:29;11.70;99.90
20035;DHT22;10178;48.034;9.800;2022-10-31T06:54:55;11.70;99.90
20035;DHT22;10178;48.034;9.800;2022-10-31T06:57:21;11.70;99.90
20035;DHT22;10178;48.034;9.800;2022-10-31T06:59:46;11.60;99.90
20035;DHT22;10178;48.034;9.800;2022-10-31T07:02:12;11.70;99.90
20035;DHT22;10178;48.034;9.800;2022-10-31T07:04:38;11.70;99.90
20035;DHT22;10178;48.034;9.800;2022-10-31T07:07:03;11.70;99.90
20035;DHT22;10178;48.034;9.800;2022-10-31T07:09:29;11.70;99.90
20035;DHT22;10178;48.034;9.800;2022-10-31T07:11:54;11.70;99.90
20035;DHT22;10178;48.034;9.800;2022-10-31T07:14:20;11.70;99.90
20035;DHT22;10178;48.034;9.800;2022-10-31T07:16:49;11.70;99.90
20035;DHT22;10178;48.034;9.800;2022-10-31T07:19:16;11.70;99.90
20035;DHT22;10178;48.034;9.800;2022-10-31T07:21:41;11.70;99.90
20035;DHT22;10178;48.034;9.800;2022-10-31T07:24:07;11.70;99.90
20035;DHT22;10178;48.034;9.800;2022-10-31T07:26:33;11.70;99.90
20035;DHT22;10178;48.034;9.800;2022-10-31T07:28:58;11.70;99.90
20035;DHT22;10178;48.034;9.800;2022-10-31T07:31:37;11.80;99.90
20035;DHT22;10178;48.034;9.800;2022-10-31T07:34:03;11.80;99.90
20035;DHT22;10178;48.034;9.800;2022-10-31T07:36:29;11.80;99.90
20035;DHT22;10178;48.034;9.800;2022-10-31T07:38:55;11.80;99.90
20035;DHT22;10178;48.034;9.800;2022-10-31T07:41:21;11.80;99.90
20035;DHT22;10178;48.034;9.800;2022-10-31T07:43:46;11.80;99.90
20035;DHT22;10178;48.034;9.800;2022-10-31T07:46:12;11.90;99.90
20035;DHT22;10178;48.034;9.800;2022-10-31T07:48:38;11.90;99.90
20035;DHT22;10178;48.034;9.800;2022-10-31T07:51:03;11.90;99.90
20035;DHT22;10178;48.034;9.800;2022-10-31T07:53:30;11.90;99.90
20035;DHT22;10178;48.034;9.800;2022-10-31T07:55:55;11.90;99.90
20035;DHT22;10178;48.034;9.800;2022-10-31T07:58:21;12.00;99.90
20035;DHT22;10178;48.034;9.800;2022-10-31T08:00:47;12.00;99.90
20035;DHT22;10178;48.034;9.800;2022-10-31T08:03:15;12.00;99.90
20035;DHT22;10178;48.034;9.800;2022-10-31T08:05:42;12.10;99.90
20035;DHT22;10178;48.034;9.800;2022-10-31T08:08:10;12.10;99.90
20035;DHT22;10178;48.034;9.800;2022-10-31T08:10:36;12.10;99.90
20035;DHT22;10178;48.034;9.800;2022-10-31T08:13:07;12.20;99.90
20035;DHT22;10178;48.034;9.800;2022-10-31T08:15:33;12.10;99.90
20035;DHT22;10178;48.034;9.800;2022-10-31T08:18:02;12.20;99.90
20035;DHT22;10178;48.034;9.800;2022-10-31T08:20:28;12.20;99.90
20035;DHT22;10178;48.034;9.800;2022-10-31T08:22:59;12.20;99.90
20035;DHT22;10178;48.034;9.800;2022-10-31T08:25:26;12.30;99.90
20035;DHT22;10178;48.034;9.800;2022-10-31T08:27:53;12.30;99.90
20035;DHT22;10178;48.034;9.800;2022-10-31T08:30:21;12.30;99.90
20035;DHT22;10178;48.034;9.800;2022-10-31T08:32:56;12.30;99.90
20035;DHT22;10178;48.034;9.800;2022-10-31T08:35:22;12.40;99.90
20035;DHT22;10178;48.034;9.800;2022-10-31T08:37:52;12.40;99.90
20035;DHT22;10178;48.034;9.800;2022-10-31T08:40:19;12.50;99.90
20035;DHT22;10178;48.034;9.800;2022-10-31T08:42:45;12.50;99.90
20035;DHT22;10178;48.034;9.800;2022-10-31T08:45:10;12.50;99.90
20035;DHT22;10178;48.034;9.800;2022-10-31T08:47:36;12.50;99.90
20035;DHT22;10178;48.034;9.800;2022-10-31T08:50:01;12.50;99.90
20035;DHT22;10178;48.034;9.800;2022-10-31T08:52:27;12.60;99.90
20035;DHT22;10178;48.034;9.800;2022-10-31T08:54:53;12.60;99.90
20035;DHT22;10178;48.034;9.800;2022-10-31T08:57:18;12.60;99.90
20035;DHT22;10178;48.034;9.800;2022-10-31T08:59:44;12.70;99.90
20035;DHT22;10178;48.034;9.800;2022-10-31T09:02:10;12.80;99.90
20035;DHT22;10178;48.034;9.800;2022-10-31T09:04:35;12.70;99.90
20035;DHT22;10178;48.034;9.800;2022-10-31T09:07:01;12.70;99.90
20035;DHT22;10178;48.034;9.800;2022-10-31T09:09:26;12.80;99.90
20035;DHT22;10178;48.034;9.800;2022-10-31T09:11:52;12.80;99.90
20035;DHT22;10178;48.034;9.800;2022-10-31T09:14:17;12.70;99.90
20035;DHT22;10178;48.034;9.800;2022-10-31T09:16:43;12.80;99.90
20035;DHT22;10178;48.034;9.800;2022-10-31T09:19:08;12.80;99.90
20035;DHT22;10178;48.034;9.800;2022-10-31T09:21:34;12.80;99.90
20035;DHT22;10178;48.034;9.800;2022-10-31T09:24:00;12.80;99.90
20035;DHT22;10178;48.034;9.800;2022-10-31T09:26:25;12.90;99.90
20035;DHT22;10178;48.034;9.800;2022-10-31T09:28:51;13.00;99.90
20035;DHT22;10178;48.034;9.800;2022-10-31T09:31:17;13.00;99.90
20035;DHT22;10178;48.034;9.800;2022-10-31T09:33:42;13.20;99.90
20035;DHT22;10178;48.034;9.800;2022-10-31T09:36:08;13.40;99.90
20035;DHT22;10178;48.034;9.800;2022-10-31T09:38:36;13.50;99.90
20035;DHT22;10178;48.034;9.800;2022-10-31T09:46:47;13.40;99.90
20035;DHT22;10178;48.034;9.800;2022-10-31T09:57:43;13.20;99.90
20035;DHT22;10178;48.034;9.800;2022-10-31T10:00:16;13.20;99.90
20035;DHT22;10178;48.034;9.800;2022-10-31T10:05:46;13.20;99.90
20035;DHT22;10178;48.034;9.800;2022-10-31T10:08:19;13.30;99.90
20035;DHT22;10178;48.034;9.800;2022-10-31T10:10:54;13.30;99.90
20035;DHT22;10178;48.034;9.800;2022-10-31T10:24:33;13.60;99.90
20035;DHT22;10178;48.034;9.800;2022-10-31T10:30:07;13.90;99.90
20035;DHT22;10178;48.034;9.800;2022-10-31T10:32:46;14.10;99.90
20035;DHT22;10178;48.034;9.800;2022-10-31T10:37:53;14.30;99.90
20035;DHT22;10178;48.034;9.800;2022-10-31T10:40:24;14.50;99.90
20035;DHT22;10178;48.034;9.800;2022-10-31T10:45:56;14.50;99.90
20035;DHT22;10178;48.034;9.800;2022-10-31T10:51:46;14.50;99.90
20035;DHT22;10178;48.034;9.800;2022-10-31T10:57:11;14.80;99.90
20035;DHT22;10178;48.034;9.800;2022-10-31T10:59:38;14.90;99.90
20035;DHT22;10178;48.034;9.800;2022-10-31T11:02:25;15.00;99.90
20035;DHT22;10178;48.034;9.800;2022-10-31T11:04:54;15.20;99.90
20035;DHT22;10178;48.034;9.800;2022-10-31T11:07:20;15.40;99.90
20035;DHT22;10178;48.034;9.800;2022-10-31T11:09:46;15.70;99.90
20035;DHT22;10178;48.034;9.800;2022-10-31T11:12:29;15.90;99.90
20035;DHT22;10178;48.034;9.800;2022-10-31T11:15:02;15.90;99.90
20035;DHT22;10178;48.034;9.800;2022-10-31T11:17:32;15.80;99.90
20035;DHT22;10178;48.034;9.800;2022-10-31T11:20:49;15.70;99.90
20035;DHT22;10178;48.034;9.800;2022-10-31T11:23:24;15.60;99.90
20035;DHT22;10178;48.034;9.800;2022-10-31T11:28:16;15.40;99.90
20035;DHT22;10178;48.034;9.800;2022-10-31T11:33:33;15.20;99.90
20035;DHT22;10178;48.034;9.800;2022-10-31T11:36:01;15.00;99.90
20035;DHT22;10178;48.034;9.800;2022-10-31T11:38:39;14.90;99.90
20035;DHT22;10178;48.034;9.800;2022-10-31T11:41:27;14.90;99.90
20035;DHT22;10178;48.034;9.800;2022-10-31T11:44:05;14.90;99.90
20035;DHT22;10178;48.034;9.800;2022-10-31T11:46:51;14.80;99.90
20035;DHT22;10178;48.034;9.800;2022-10-31T11:49:22;14.80;99.90
20035;DHT22;10178;48.034;9.800;2022-10-31T11:51:54;14.80;99.90
20035;DHT22;10178;48.034;9.800;2022-10-31T11:54:44;14.80;99.90
20035;DHT22;10178;48.034;9.800;2022-10-31T11:57:32;14.80;99.90
20035;DHT22;10178;48.034;9.800;2022-10-31T12:00:00;14.80;99.90
20035;DHT22;10178;48.034;9.800;2022-10-31T12:02:26;14.90;99.90
20035;DHT22;10178;48.034;9.800;2022-10-31T12:05:02;14.80;99.90
20035;DHT22;10178;48.034;9.800;2022-10-31T12:07:30;14.80;99.90
20035;DHT22;10178;48.034;9.800;2022-10-31T12:09:55;14.70;99.90
20035;DHT22;10178;48.034;9.800;2022-10-31T12:17:22;15.00;99.90
20035;DHT22;10178;48.034;9.800;2022-10-31T12:30:37;16.10;99.90
20035;DHT22;10178;48.034;9.800;2022-10-31T12:33:24;16.20;99.90
20035;DHT22;10178;48.034;9.800;2022-10-31T12:44:10;15.80;99.90
20035;DHT22;10178;48.034;9.800;2022-10-31T12:55:35;16.00;99.90
20035;DHT22;10178;48.034;9.800;2022-10-31T13:00:41;16.00;99.90
20035;DHT22;10178;48.034;9.800;2022-10-31T13:03:23;16.00;99.90
20035;DHT22;10178;48.034;9.800;2022-10-31T13:05:54;15.90;99.90
20035;DHT22;10178;48.034;9.800;2022-10-31T13:08:38;15.70;99.90
20035;DHT22;10178;48.034;9.800;2022-10-31T13:11:56;15.60;99.90
20035;DHT22;10178;48.034;9.800;2022-10-31T13:14:21;15.60;99.90
20035;DHT22;10178;48.034;9.800;2022-10-31T13:16:49;15.70;99.90
20035;DHT22;10178;48.034;9.800;2022-10-31T13:19:51;15.80;99.90
20035;DHT22;10178;48.034;9.800;2022-10-31T13:22:22;15.80;99.90
20035;DHT22;10178;48.034;9.800;2022-10-31T13:24:57;15.70;99.90
20035;DHT22;10178;48.034;9.800;2022-10-31T13:27:29;15.60;99.90
20035;DHT22;10178;48.034;9.800;2022-10-31T13:38:00;15.90;99.90
20035;DHT22;10178;48.034;9.800;2022-10-31T13:45:57;15.80;99.90
20035;DHT22;10178;48.034;9.800;2022-10-31T13:51:05;15.60;99.90
20035;DHT22;10178;48.034;9.800;2022-10-31T13:53:57;15.50;99.90
20035;DHT22;10178;48.034;9.800;2022-10-31T13:56:27;15.50;99.90
20035;DHT22;10178;48.034;9.800;2022-10-31T13:59:00;15.40;99.90
20035;DHT22;10178;48.034;9.800;2022-10-31T14:01:27;15.40;99.90
20035;DHT22;10178;48.034;9.800;2022-10-31T14:04:02;15.50;99.90
20035;DHT22;10178;48.034;9.800;2022-10-31T14:06:52;15.60;99.90
20035;DHT22;10178;48.034;9.800;2022-10-31T14:11:49;16.00;99.90
20035;DHT22;10178;48.034;9.800;2022-10-31T14:14:17;16.10;99.90
20035;DHT22;10178;48.034;9.800;2022-10-31T14:16:44;16.20;99.90
20035;DHT22;10178;48.034;9.800;2022-10-31T14:19:18;16.30;99.90
20035;DHT22;10178;48.034;9.800;2022-10-31T14:21:49;16.40;99.90
20035;DHT22;10178;48.034;9.800;2022-10-31T14:26:55;16.20;99.90
20035;DHT22;10178;48.034;9.800;2022-10-31T14:29:22;16.30;99.90
20035;DHT22;10178;48.034;9.800;2022-10-31T14:32:04;16.40;99.90
20035;DHT22;10178;48.034;9.800;2022-10-31T14:38:30;16.50;99.90
20035;DHT22;10178;48.034;9.800;2022-10-31T14:40:42;16.60;99.90
20035;DHT22;10178;48.034;9.800;2022-10-31T14:43:32;16.60;99.90
20035;DHT22;10178;48.034;9.800;2022-10-31T14:54:10;16.60;99.90
20035;DHT22;10178;48.034;9.800;2022-10-31T14:56:48;16.50;99.90
20035;DHT22;10178;48.034;9.800;2022-10-31T14:59:17;16.50;99.90
20035;DHT22;10178;48.034;9.800;2022-10-31T15:01:54;16.50;99.90
20035;DHT22;10178;48.034;9.800;2022-10-31T15:04:25;16.40;99.90
20035;DHT22;10178;48.034;9.800;2022-10-31T15:07:09;16.50;99.90
20035;DHT22;10178;48.034;9.800;2022-10-31T15:09:36;16.50;99.90
20035;DHT22;10178;48.034;9.800;2022-10-31T15:12:26;16.50;99.90
20035;DHT22;10178;48.034;9.800;2022-10-31T15:14:53;16.40;99.90
20035;DHT22;10178;48.034;9.800;2022-10-31T15:17:20;16.40;99.90
20035;DHT22;10178;48.034;9.800;2022-10-31T15:19:46;16.50;99.90
20035;DHT22;10178;48.034;9.800;2022-10-31T15:22:17;16.50;99.90
20035;DHT22;10178;48.034;9.800;2022-10-31T15:24:44;16.50;99.90
20035;DHT22;10178;48.034;9.800;2022-10-31T15:27:15;16.40;99.90
20035;DHT22;10178;48.034;9.800;2022-10-31T15:32:28;16.20;99.90
20035;DHT22;10178;48.034;9.800;2022-10-31T15:34:55;16.20;99.90
20035;DHT22;10178;48.034;9.800;2022-10-31T15:37:23;16.30;99.90
20035;DHT22;10178;48.034;9.800;2022-10-31T15:39:50;16.40;99.90
20035;DHT22;10178;48.034;9.800;2022-10-31T15:42:21;16.30;99.90
20035;DHT22;10178;48.034;9.800;2022-10-31T15:45:01;16.00;99.90
20035;DHT22;10178;48.034;9.800;2022-10-31T15:47:29;15.70;99.90
20035;DHT22;10178;48.034;9.800;2022-10-31T15:49:57;15.50;99.90
20035;DHT22;10178;48.034;9.800;2022-10-31T15:52:31;15.40;99.90
20035;DHT22;10178;48.034;9.800;2022-10-31T15:55:01;15.20;99.90
20035;DHT22;10178;48.034;9.800;2022-10-31T15:57:27;15.30;99.90
20035;DHT22;10178;48.034;9.800;2022-10-31T15:59:53;15.50;99.90
20035;DHT22;10178;48.034;9.800;2022-10-31T16:02:22;15.80;99.90
20035;DHT22;10178;48.034;9.800;2022-10-31T16:04:59;15.90;99.90
20035;DHT22;10178;48.034;9.800;2022-10-31T16:07:26;15.90;99.90
20035;DHT22;10178;48.034;9.800;2022-10-31T16:09:58;15.80;99.90
20035;DHT22;10178;48.034;9.800;2022-10-31T16:12:28;15.60;99.90
20035;DHT22;10178;48.034;9.800;2022-10-31T16:14:55;15.30;99.90
20035;DHT22;10178;48.034;9.800;2022-10-31T16:17:23;15.40;99.90
20035;DHT22;10178;48.034;9.800;2022-10-31T16:19:54;15.50;99.90
20035;DHT22;10178;48.034;9.800;2022-10-31T16:22:27;15.60;99.90
20035;DHT22;10178;48.034;9.800;2022-10-31T16:28:26;15.60;99.90
20035;DHT22;10178;48.034;9.800;2022-10-31T16:30:54;15.20;99.90
20035;DHT22;10178;48.034;9.800;2022-10-31T16:35:52;14.70;99.90
20035;DHT22;10178;48.034;9.800;2022-10-31T16:38:17;14.30;99.90
20035;DHT22;10178;48.034;9.800;2022-10-31T16:40:43;14.60;99.90
20035;DHT22;10178;48.034;9.800;2022-10-31T16:43:16;14.30;99.90
20035;DHT22;10178;48.034;9.800;2022-10-31T16:45:51;14.10;99.90
20035;DHT22;10178;48.034;9.800;2022-10-31T16:48:21;14.60;99.90
20035;DHT22;10178;48.034;9.800;2022-10-31T16:50:49;14.80;99.90
20035;DHT22;10178;48.034;9.800;2022-10-31T16:53:15;14.90;99.90
20035;DHT22;10178;48.034;9.800;2022-10-31T16:55:46;15.10;99.90
20035;DHT22;10178;48.034;9.800;2022-10-31T16:58:21;15.20;99.90
20035;DHT22;10178;48.034;9.800;2022-10-31T17:00:47;15.50;99.90
20035;DHT22;10178;48.034;9.800;2022-10-31T17:03:13;15.70;99.90
20035;DHT22;10178;48.034;9.800;2022-10-31T17:05:39;15.90;99.90
20035;DHT22;10178;48.034;9.800;2022-10-31T17:08:05;16.10;99.90
20035;DHT22;10178;48.034;9.800;2022-10-31T17:10:31;16.20;99.90
20035;DHT22;10178;48.034;9.800;2022-10-31T17:12:57;16.30;99.90
20035;DHT22;10178;48.034;9.800;2022-10-31T17:15:26;16.20;99.90
20035;DHT22;10178;48.034;9.800;2022-10-31T17:17:53;15.70;99.90
20035;DHT22;10178;48.034;9.800;2022-10-31T17:20:28;15.20;99.90
20035;DHT22;10178;48.034;9.800;2022-10-31T17:22:55;15.70;99.90
20035;DHT22;10178;48.034;9.800;2022-10-31T17:25:26;16.00;99.90
20035;DHT22;10178;48.034;9.800;2022-10-31T17:27:52;16.20;99.90
20035;DHT22;10178;48.034;9.800;2022-10-31T17:30:19;16.30;99.90
20035;DHT22;10178;48.034;9.800;2022-10-31T17:32:47;16.40;99.90
20035;DHT22;10178;48.034;9.800;2022-10-31T17:35:14;16.40;99.90
20035;DHT22;10178;48.034;9.800;2022-10-31T17:37:41;16.50;99.90
20035;DHT22;10178;48.034;9.800;2022-10-31T17:40:11;16.40;99.90
20035;DHT22;10178;48.034;9.800;2022-10-31T17:42:37;16.40;99.90
20035;DHT22;10178;48.034;9.800;2022-10-31T17:45:04;16.30;99.90
20035;DHT22;10178;48.034;9.800;2022-10-31T17:47:30;16.20;99.90
20035;DHT22;10178;48.034;9.800;2022-10-31T17:49:55;16.20;99.90
20035;DHT22;10178;48.034;9.800;2022-10-31T17:52:21;16.20;99.90
20035;DHT22;10178;48.034;9.800;2022-10-31T17:54:48;16.10;99.90
20035;DHT22;10178;48.034;9.800;2022-10-31T17:57:14;16.10;99.90
20035;DHT22;10178;48.034;9.800;2022-10-31T17:59:40;16.10;99.90
20035;DHT22;10178;48.034;9.800;2022-10-31T18:02:07;16.20;99.90
20035;DHT22;10178;48.034;9.800;2022-10-31T18:04:37;16.10;99.90
20035;DHT22;10178;48.034;9.800;2022-10-31T18:07:05;16.20;99.90
20035;DHT22;10178;48.034;9.800;2022-10-31T18:09:30;16.10;99.90
20035;DHT22;10178;48.034;9.800;2022-10-31T18:11:56;16.20;99.90
20035;DHT22;10178;48.034;9.800;2022-10-31T18:14:22;16.20;99.90
20035;DHT22;10178;48.034;9.800;2022-10-31T18:16:48;16.10;99.90
20035;DHT22;10178;48.034;9.800;2022-10-31T18:19:14;16.00;99.90
20035;DHT22;10178;48.034;9.800;2022-10-31T18:21:46;16.00;99.90
20035;DHT22;10178;48.034;9.800;2022-10-31T18:24:12;16.00;99.90
20035;DHT22;10178;48.034;9.800;2022-10-31T18:26:38;16.00;99.90
20035;DHT22;10178;48.034;9.800;2022-10-31T18:29:04;15.90;99.90
20035;DHT22;10178;48.034;9.800;2022-10-31T18:31:30;15.90;99.90